This is the latest recevied weather packets stored in our database for station/object Krauchnws. If no packets are shown the sender has not sent any weather packets the latest 10 day(s).
| Time | Temp. | Humidity | Pressure | Rain* | Wind** | Luminosity | Snow |
|---|---|---|---|---|---|---|---|
| 1777764730 | 10° C | 77% | 1015.2 hPa | 0 mm | - | - | - |
| 1777762930 | 10.56° C | 76% | 1015.3 hPa | 0 mm | - | - | - |
| 1777761131 | 11.11° C | 73% | 1015.5 hPa | 0 mm | - | - | - |
| 1777757530 | 12.22° C | 68% | 1015.6 hPa | 0 mm | - | - | - |
| 1777755729 | 13.33° C | 66% | 1015.4 hPa | 0 mm | - | - | - |
| 1777753930 | 13.33° C | 63% | 1015.8 hPa | 0 mm | - | - | - |
| 1777752130 | 15° C | 57% | 1015.7 hPa | 0 mm | - | - | - |
| 1777750335 | 16.11° C | 50% | 1015.7 hPa | 0 mm | - | - | - |
| 1777748537 | 17.78° C | 45% | 1015.6 hPa | 0 mm | - | - | - |
| 1777746730 | 19.44° C | 40% | 1015.3 hPa | 0 mm | - | - | - |
| 1777744931 | 22.22° C | 35% | 1015.1 hPa | 0 mm | - | - | - |
| 1777743130 | 23.89° C | 35% | 1015.1 hPa | 0 mm | - | - | - |
| 1777741330 | 25° C | 30% | 1015.5 hPa | 0 mm | - | - | - |
| 1777739530 | 24.44° C | 32% | 1015.7 hPa | 0 mm | - | - | - |
| 1777737733 | 24.44° C | 28% | 1016.1 hPa | 0 mm | - | - | - |
| 1777735930 | 25° C | 30% | 1016.4 hPa | 0 mm | - | - | - |
| 1777734130 | 25° C | 29% | 1016.7 hPa | 0 mm | - | - | - |
| 1777732330 | 25° C | 29% | 1017.2 hPa | 0 mm | - | - | - |
| 1777730530 | 24.44° C | 30% | 1017.7 hPa | 0 mm | - | - | - |
| 1777728731 | 24.44° C | 29% | 1017.9 hPa | 0 mm | - | - | - |
| 1777726930 | 23.89° C | 27% | 1018.2 hPa | 0 mm | - | - | - |
| 1777725131 | 23.89° C | 29% | 1018.5 hPa | 0 mm | - | - | - |
| 1777723330 | 23.33° C | 29% | 1018.9 hPa | 0 mm | - | - | - |
| 1777721531 | 23.33° C | 29% | 1019.5 hPa | 0 mm | - | - | - |
| 1777719730 | 22.78° C | 27% | 1019.9 hPa | 0 mm | - | - | - |
* Rain since midnight (hover to see other rain measurements)
** Current wind speed in m/s (hover to see current wind gust speed)